Terminal Aerodrome Forecast
Issued by NWS Wichita, KS

Current Version | Previous Version | Text Only | Print | Product List | Glossary On
Versions: 1 2 3 4 5 6 7 8 9 10 11 12 13 14 15
000
FTUS43 KICT 230540
TAFICT
TAF
KICT 230540Z 2306/2406 07005KT P6SM BKN250
     FM231200 05013KT P6SM BKN120
     FM231800 11009KT P6SM BKN130
     FM232000 15009KT P6SM SCT150=

USA.gov is the U.S. government's official web portal to all federal, state and local government web resources and services.